createdAt,value
2019-03-10T00:00:38.232Z,91.10
2019-03-10T00:03:08.450Z,90.90
2019-03-10T00:05:37.307Z,91.00
2019-03-10T00:08:08.012Z,91.00
2019-03-10T00:10:38.675Z,90.90
2019-03-10T00:13:07.360Z,90.80
2019-03-10T00:15:37.792Z,90.80
2019-03-10T00:18:06.626Z,90.70
2019-03-10T00:20:39.452Z,90.80
2019-03-10T00:23:09.043Z,90.80
2019-03-10T00:25:37.965Z,90.80
2019-03-10T00:28:08.658Z,90.70
2019-03-10T00:30:39.278Z,90.70
2019-03-10T00:33:08.145Z,90.40
2019-03-10T00:35:39.536Z,90.60
2019-03-10T00:38:09.727Z,90.50
2019-03-10T00:40:56.503Z,90.40
2019-03-10T00:43:38.271Z,90.30
2019-03-10T00:46:39.150Z,90.10
2019-03-10T00:49:26.468Z,90.20
2019-03-10T00:52:10.900Z,90.20
2019-03-10T00:54:40.156Z,89.90
2019-03-10T00:57:09.025Z,90.00
2019-03-10T00:59:39.331Z,90.00
2019-03-10T01:02:08.199Z,90.10
2019-03-10T01:04:37.126Z,89.90
2019-03-10T01:07:05.938Z,90.20
2019-03-10T01:09:36.701Z,90.30
2019-03-10T01:12:06.080Z,90.50
2019-03-10T01:14:35.949Z,90.40
2019-03-10T01:17:04.809Z,90.90
2019-03-10T01:19:35.120Z,90.70
2019-03-10T01:22:03.954Z,90.60
2019-03-10T01:24:34.096Z,90.90
2019-03-10T01:27:02.862Z,90.70
2019-03-10T01:29:31.718Z,90.60
2019-03-10T01:32:09.111Z,90.70
2019-03-10T01:35:02.906Z,90.60
2019-03-10T01:37:31.735Z,90.70
2019-03-10T01:40:00.985Z,90.50
2019-03-10T01:42:29.864Z,90.20
2019-03-10T01:45:19.441Z,90.30
2019-03-10T01:47:48.271Z,90.30
2019-03-10T01:50:17.072Z,90.10
2019-03-10T01:52:45.914Z,90.20
2019-03-10T01:55:15.052Z,90.40
2019-03-10T01:57:43.896Z,90.30
2019-03-10T02:00:17.251Z,90.40
2019-03-10T02:02:46.114Z,90.30
2019-03-10T02:05:14.960Z,90.00
2019-03-10T02:07:45.257Z,90.10
2019-03-10T02:10:14.291Z,90.20
2019-03-10T02:12:43.014Z,90.20
2019-03-10T02:15:14.443Z,90.10
2019-03-10T02:17:43.258Z,89.80
2019-03-10T02:20:15.016Z,89.80
2019-03-10T02:22:43.890Z,89.50
2019-03-10T02:25:13.822Z,89.90
2019-03-10T02:27:42.687Z,89.10
2019-03-10T02:30:14.461Z,89.30
2019-03-10T02:32:43.304Z,89.10
2019-03-10T02:35:12.173Z,89.20
2019-03-10T02:37:41.018Z,89.20
2019-03-10T02:40:10.224Z,88.80
2019-03-10T02:42:39.098Z,88.80
2019-03-10T02:45:09.663Z,88.90
2019-03-10T02:47:38.859Z,89.20
2019-03-10T02:50:09.857Z,88.70
2019-03-10T02:52:40.006Z,89.00
2019-03-10T02:55:09.134Z,88.80
2019-03-10T02:57:37.942Z,88.50
2019-03-10T03:00:14.666Z,88.40
2019-03-10T03:02:44.737Z,88.30
2019-03-10T03:05:13.629Z,88.20
2019-03-10T03:07:42.471Z,89.70
2019-03-10T03:10:14.807Z,88.20
2019-03-10T03:12:43.646Z,88.00
2019-03-10T03:15:12.638Z,88.00
2019-03-10T03:17:42.732Z,87.90
2019-03-10T03:20:12.912Z,88.20
2019-03-10T03:22:41.744Z,89.40
2019-03-10T03:25:11.587Z,89.20
2019-03-10T03:27:40.399Z,88.80
2019-03-10T03:30:17.534Z,89.70
2019-03-10T03:32:46.334Z,89.80
2019-03-10T03:35:52.557Z,89.90
2019-03-10T03:38:34.307Z,90.00
2019-03-10T03:41:12.033Z,89.90
2019-03-10T03:43:40.887Z,90.20
2019-03-10T03:46:11.311Z,90.30
2019-03-10T03:48:40.145Z,91.00
2019-03-10T03:51:08.944Z,90.90
2019-03-10T03:53:37.773Z,90.90
2019-03-10T03:56:06.575Z,91.20
2019-03-10T03:58:35.466Z,91.40
2019-03-10T04:01:05.851Z,91.70
2019-03-10T04:03:35.212Z,91.50
2019-03-10T04:06:05.288Z,91.50
2019-03-10T04:08:34.066Z,91.80
2019-03-10T04:11:02.913Z,92.30
2019-03-10T04:13:31.752Z,93.00
2019-03-10T04:16:00.568Z,92.50
2019-03-10T04:18:29.426Z,92.30
2019-03-10T04:20:58.378Z,92.50
2019-03-10T04:23:27.509Z,92.30
2019-03-10T04:25:58.582Z,92.40
2019-03-10T04:28:27.113Z,92.20
2019-03-10T04:30:57.010Z,92.30
2019-03-10T04:33:26.813Z,92.10
2019-03-10T04:35:55.670Z,92.20
2019-03-10T04:38:25.784Z,92.30
2019-03-10T04:40:54.684Z,92.00
2019-03-10T04:43:23.495Z,91.90
2019-03-10T04:45:54.311Z,92.00
2019-03-10T04:48:22.798Z,92.50
2019-03-10T04:50:51.805Z,92.60
2019-03-10T04:53:20.760Z,92.80
2019-03-10T04:56:07.552Z,92.80
2019-03-10T04:58:38.001Z,93.00
2019-03-10T05:01:08.778Z,93.10
2019-03-10T05:03:37.363Z,93.00
2019-03-10T05:06:06.203Z,93.00
2019-03-10T05:08:35.061Z,92.80
2019-03-10T05:11:04.894Z,92.60
2019-03-10T05:13:33.628Z,92.60
2019-03-10T05:16:02.488Z,92.60
2019-03-10T05:18:31.287Z,93.00
2019-03-10T05:21:01.695Z,93.10
2019-03-10T05:23:32.913Z,92.90
2019-03-10T05:26:01.937Z,92.90
2019-03-10T05:28:32.743Z,93.60
2019-03-10T05:31:01.580Z,93.40
2019-03-10T05:33:30.416Z,93.70
2019-03-10T05:36:00.614Z,94.00
2019-03-10T05:38:29.452Z,94.30
2019-03-10T05:40:58.294Z,94.40
2019-03-10T05:43:27.147Z,94.20
2019-03-10T05:45:55.963Z,94.50
2019-03-10T05:48:24.809Z,94.10
2019-03-10T05:50:54.008Z,94.10
2019-03-10T05:53:22.912Z,93.90
2019-03-10T05:55:51.675Z,93.80
2019-03-10T05:58:20.516Z,94.00
2019-03-10T06:00:49.441Z,94.20
2019-03-10T06:03:18.242Z,94.40
2019-03-10T06:05:47.106Z,94.70
2019-03-10T06:08:16.827Z,94.40
2019-03-10T06:10:45.710Z,94.50
2019-03-10T06:13:14.527Z,94.20
2019-03-10T06:15:43.328Z,93.80
2019-03-10T06:18:13.835Z,94.00
2019-03-10T06:20:43.026Z,93.90
2019-03-10T06:23:13.177Z,93.70
2019-03-10T06:25:42.813Z,93.60
2019-03-10T06:28:12.530Z,93.70
2019-03-10T06:30:42.035Z,93.10
2019-03-10T06:33:13.013Z,93.10
2019-03-10T06:35:41.798Z,93.00
2019-03-10T06:38:10.643Z,92.50
2019-03-10T06:40:39.493Z,92.40
2019-03-10T06:43:08.339Z,92.40
2019-03-10T06:45:38.131Z,92.40
2019-03-10T06:48:07.258Z,92.10
2019-03-10T06:50:36.114Z,92.30
2019-03-10T06:53:07.241Z,92.40
2019-03-10T06:55:35.789Z,92.80
2019-03-10T06:58:04.682Z,92.70
2019-03-10T07:00:33.491Z,92.80
2019-03-10T07:03:02.303Z,92.80
2019-03-10T07:05:32.730Z,92.60
2019-03-10T07:08:01.960Z,92.50
2019-03-10T07:10:30.802Z,92.40
2019-03-10T07:12:59.687Z,92.50
2019-03-10T07:15:30.032Z,92.00
2019-03-10T07:18:00.579Z,91.50
2019-03-10T07:20:29.350Z,91.00
2019-03-10T07:22:59.680Z,90.60
2019-03-10T07:25:28.800Z,90.30
2019-03-10T07:27:59.179Z,90.30
2019-03-10T07:30:32.490Z,89.40
2019-03-10T07:33:11.939Z,90.20
2019-03-10T07:36:00.514Z,90.30
2019-03-10T07:38:49.165Z,90.50
2019-03-10T07:41:41.263Z,90.30
2019-03-10T07:44:11.693Z,90.80
2019-03-10T07:46:54.029Z,90.40
2019-03-10T07:49:30.324Z,90.30
2019-03-10T07:52:03.216Z,90.20
2019-03-10T07:54:39.519Z,90.00
2019-03-10T07:57:11.439Z,90.40
2019-03-10T07:59:47.698Z,90.70
2019-03-10T08:02:20.962Z,90.90
2019-03-10T08:04:53.946Z,90.50
2019-03-10T08:07:42.255Z,90.40
2019-03-10T08:10:13.023Z,90.40
2019-03-10T08:12:52.386Z,90.50
2019-03-10T08:15:39.137Z,90.50
2019-03-10T08:18:15.204Z,90.80
2019-03-10T08:21:01.944Z,90.50
2019-03-10T08:23:38.146Z,90.40
2019-03-10T08:26:17.339Z,90.00
2019-03-10T08:28:58.442Z,90.00
2019-03-10T08:31:31.462Z,89.90
2019-03-10T08:34:04.656Z,88.70
2019-03-10T08:36:51.398Z,89.20
2019-03-10T08:39:24.626Z,90.10
2019-03-10T08:42:00.765Z,90.20
2019-03-10T08:44:31.142Z,89.20
2019-03-10T08:47:11.427Z,88.90
2019-03-10T08:49:45.627Z,88.40
2019-03-10T08:52:17.557Z,88.50
2019-03-10T08:54:58.553Z,88.00
2019-03-10T08:57:29.622Z,88.30
2019-03-10T09:00:08.782Z,87.50
2019-03-10T09:02:39.191Z,88.50
2019-03-10T09:05:10.543Z,87.70
2019-03-10T09:07:53.259Z,87.30
2019-03-10T09:10:32.302Z,87.90
2019-03-10T09:13:05.289Z,86.70
2019-03-10T09:15:40.942Z,85.50
2019-03-10T09:18:13.916Z,85.40
2019-03-10T09:20:44.346Z,85.20
2019-03-10T09:23:36.976Z,85.90
2019-03-10T09:26:24.121Z,84.80
2019-03-10T09:28:54.540Z,83.50
2019-03-10T09:31:37.024Z,83.40
2019-03-10T09:34:16.793Z,83.50
2019-03-10T09:37:03.715Z,83.30
2019-03-10T09:39:36.809Z,84.40
2019-03-10T09:42:16.117Z,84.40
2019-03-10T09:44:55.140Z,83.30
2019-03-10T09:47:25.579Z,83.90
2019-03-10T09:50:12.019Z,83.60
2019-03-10T09:52:42.392Z,82.90
2019-03-10T09:55:15.482Z,84.20
2019-03-10T09:57:48.384Z,82.80
2019-03-10T10:00:33.511Z,83.90
2019-03-10T10:03:06.532Z,82.10
2019-03-10T10:05:39.797Z,83.20
2019-03-10T10:08:27.180Z,83.20
2019-03-10T10:11:12.542Z,83.20
2019-03-10T10:13:58.023Z,83.70
2019-03-10T10:16:31.411Z,84.00
2019-03-10T10:19:01.770Z,82.20
2019-03-10T10:21:41.142Z,82.50
2019-03-10T10:24:11.543Z,82.50
2019-03-10T10:26:50.829Z,82.70
2019-03-10T10:29:21.223Z,82.80
2019-03-10T10:31:51.664Z,82.10
2019-03-10T10:34:34.658Z,81.80
2019-03-10T10:37:07.902Z,81.40
2019-03-10T10:39:46.883Z,81.30
2019-03-10T10:42:29.446Z,80.20
2019-03-10T10:45:05.868Z,79.30
2019-03-10T10:47:36.249Z,79.60
2019-03-10T10:50:27.730Z,78.70
2019-03-10T10:53:07.025Z,79.00
2019-03-10T10:55:40.750Z,77.70
2019-03-10T10:58:15.370Z,77.20
2019-03-10T11:00:47.549Z,78.00
2019-03-10T11:03:24.021Z,76.50
2019-03-10T11:06:01.723Z,76.00
2019-03-10T11:08:41.119Z,77.60
2019-03-10T11:11:29.455Z,75.70
2019-03-10T11:14:00.201Z,78.60
2019-03-10T11:16:36.780Z,78.90
2019-03-10T11:19:24.333Z,79.80
2019-03-10T11:21:57.564Z,80.00
2019-03-10T11:24:36.449Z,80.90
2019-03-10T11:27:23.037Z,80.70
2019-03-10T11:29:56.046Z,83.90
2019-03-10T11:32:43.170Z,79.90
2019-03-10T11:35:29.584Z,81.10
2019-03-10T11:38:05.853Z,80.60
2019-03-10T11:40:51.186Z,82.60
2019-03-10T11:43:23.048Z,82.20
2019-03-10T11:45:59.182Z,83.00
2019-03-10T11:48:35.445Z,83.70
2019-03-10T11:51:15.060Z,80.70
2019-03-10T11:53:51.100Z,79.30
2019-03-10T11:56:24.991Z,78.80
2019-03-10T11:58:57.790Z,80.30
2019-03-10T12:01:34.107Z,77.00
2019-03-10T12:04:32.869Z,76.00
2019-03-10T12:07:15.197Z,76.30
2019-03-10T12:09:44.078Z,78.70
2019-03-10T12:12:12.876Z,78.90
2019-03-10T12:14:42.047Z,78.40
2019-03-10T12:17:10.885Z,80.90
2019-03-10T12:19:41.758Z,81.80
2019-03-10T12:22:10.611Z,84.70
2019-03-10T12:24:39.454Z,83.20
2019-03-10T12:27:08.258Z,84.80
2019-03-10T12:29:37.382Z,84.90
2019-03-10T12:32:06.196Z,85.70
2019-03-10T12:34:35.072Z,85.50
2019-03-10T12:37:03.988Z,86.00
2019-03-10T12:39:32.773Z,85.50
2019-03-10T12:42:01.603Z,86.50
2019-03-10T12:44:30.852Z,85.00
2019-03-10T12:46:59.769Z,84.40
2019-03-10T12:49:28.609Z,82.30
2019-03-10T12:51:57.693Z,82.20
2019-03-10T12:54:26.488Z,83.30
2019-03-10T12:56:55.331Z,82.10
2019-03-10T12:59:24.232Z,81.20
2019-03-10T13:01:53.060Z,83.30
2019-03-10T13:04:21.909Z,82.70
2019-03-10T13:06:50.706Z,82.20
2019-03-10T13:09:19.872Z,84.10
2019-03-10T13:11:49.918Z,82.80
2019-03-10T13:14:18.903Z,82.30
2019-03-10T13:16:48.997Z,80.70
2019-03-10T13:19:17.801Z,82.10
2019-03-10T13:21:46.729Z,82.70
2019-03-10T13:24:15.662Z,82.00
2019-03-10T13:26:44.472Z,83.00
2019-03-10T13:29:13.305Z,83.10
2019-03-10T13:31:42.539Z,83.60
2019-03-10T13:34:11.454Z,84.60
2019-03-10T13:36:40.308Z,84.70
2019-03-10T13:39:09.727Z,84.30
2019-03-10T13:41:42.045Z,85.00
2019-03-10T13:44:12.446Z,85.70
2019-03-10T13:46:43.775Z,85.70
2019-03-10T13:49:11.942Z,86.40
2019-03-10T13:51:40.916Z,87.40
2019-03-10T13:54:11.216Z,88.40
2019-03-10T13:56:40.194Z,89.10
2019-03-10T13:59:10.684Z,88.50
2019-03-10T14:01:39.663Z,87.40
2019-03-10T14:04:09.079Z,88.10
2019-03-10T14:06:37.928Z,88.60
2019-03-10T14:09:11.472Z,89.80
2019-03-10T14:11:40.405Z,89.00
2019-03-10T14:14:09.286Z,89.80
2019-03-10T14:19:20.364Z,90.00
2019-03-10T14:21:49.578Z,90.30
2019-03-10T14:24:18.545Z,90.00
2019-03-10T14:26:47.364Z,88.30
2019-03-10T14:29:16.193Z,89.40
2019-03-10T14:31:45.023Z,87.00
2019-03-10T14:34:14.149Z,85.30
2019-03-10T14:36:42.998Z,85.60
2019-03-10T14:39:13.455Z,85.30
2019-03-10T14:41:42.290Z,84.00
2019-03-10T14:44:11.120Z,84.60
2019-03-10T14:46:39.932Z,85.20
2019-03-10T14:49:09.091Z,85.30
2019-03-10T14:51:37.916Z,85.80
2019-03-10T14:54:06.800Z,84.10
2019-03-10T14:56:35.592Z,83.80
2019-03-10T14:59:04.522Z,84.40
2019-03-10T15:01:33.400Z,83.10
2019-03-10T15:04:02.348Z,83.10
2019-03-10T15:06:33.321Z,83.40
2019-03-10T15:09:02.537Z,82.40
2019-03-10T15:11:31.478Z,81.90
2019-03-10T15:14:00.306Z,80.20
2019-03-10T15:16:29.203Z,80.60
2019-03-10T15:18:59.239Z,82.60
2019-03-10T15:21:28.041Z,82.30
2019-03-10T15:23:56.842Z,80.80
2019-03-10T15:26:26.057Z,81.90
2019-03-10T15:28:54.915Z,81.00
2019-03-10T15:31:23.733Z,81.70
2019-03-10T15:33:52.536Z,80.60
2019-03-10T15:36:23.176Z,81.60
2019-03-10T15:38:52.049Z,81.80
2019-03-10T15:41:22.314Z,81.40
2019-03-10T15:43:51.138Z,81.40
2019-03-10T15:46:22.021Z,83.30
2019-03-10T15:48:52.407Z,84.00
2019-03-10T15:51:21.341Z,85.80
2019-03-10T15:53:52.253Z,86.30
2019-03-10T15:56:20.950Z,87.90
2019-03-10T15:58:49.749Z,87.00
2019-03-10T16:01:18.707Z,88.50
2019-03-10T16:03:47.608Z,89.10
2019-03-10T16:06:18.081Z,90.10
2019-03-10T16:08:47.156Z,91.30
2019-03-10T16:11:15.983Z,91.60
2019-03-10T16:13:44.873Z,91.70
2019-03-10T16:16:13.871Z,91.70
2019-03-10T16:18:43.974Z,91.50
2019-03-10T16:21:16.383Z,91.30
2019-03-10T16:23:45.350Z,91.50
2019-03-10T16:26:15.676Z,92.20
2019-03-10T16:28:44.641Z,91.70
2019-03-10T16:31:13.412Z,92.40
2019-03-10T16:33:42.244Z,91.50
2019-03-10T16:36:11.043Z,91.40
2019-03-10T16:38:39.886Z,91.20
2019-03-10T16:41:08.680Z,91.00
2019-03-10T16:43:37.513Z,90.30
2019-03-10T16:46:06.709Z,90.80
2019-03-10T16:48:35.553Z,90.00
2019-03-10T16:51:04.355Z,90.50
2019-03-10T16:53:33.203Z,90.00
2019-03-10T16:56:03.123Z,90.10
2019-03-10T16:58:32.260Z,89.40
2019-03-10T17:01:01.491Z,89.40
2019-03-10T17:03:30.411Z,89.60
2019-03-10T17:05:59.260Z,88.60
2019-03-10T17:08:28.090Z,89.30
2019-03-10T17:10:56.920Z,90.10
2019-03-10T17:13:25.721Z,90.10
2019-03-10T17:15:55.588Z,90.10
2019-03-10T17:18:26.636Z,89.70
2019-03-10T17:20:55.215Z,90.10
2019-03-10T17:23:24.053Z,90.20
2019-03-10T17:25:53.236Z,89.60
2019-03-10T17:28:22.048Z,90.40
2019-03-10T17:30:50.882Z,90.20
2019-03-10T17:33:19.717Z,89.50
2019-03-10T17:35:48.507Z,90.20
2019-03-10T17:38:17.344Z,90.70
2019-03-10T17:40:48.061Z,91.40
2019-03-10T17:43:17.038Z,91.50
2019-03-10T17:45:45.900Z,92.10
2019-03-10T17:48:14.707Z,91.80
2019-03-10T17:50:43.863Z,91.60
2019-03-10T17:53:12.661Z,91.60
2019-03-10T17:55:47.266Z,91.90
2019-03-10T17:58:19.227Z,91.80
2019-03-10T18:00:50.558Z,92.10
2019-03-10T18:03:20.766Z,91.50
2019-03-10T18:05:49.593Z,92.00
2019-03-10T18:08:18.393Z,92.60
2019-03-10T18:10:47.823Z,92.40
2019-03-10T18:13:16.693Z,92.70
2019-03-10T18:15:48.816Z,93.10
2019-03-10T18:18:17.644Z,93.40
2019-03-10T18:20:46.478Z,93.40
2019-03-10T18:23:18.459Z,93.60
2019-03-10T18:25:49.540Z,93.90
2019-03-10T18:28:22.526Z,94.10
2019-03-10T18:30:51.333Z,94.00
2019-03-10T18:33:20.172Z,94.30
2019-03-10T18:35:49.002Z,94.30
2019-03-10T18:38:17.846Z,94.70
2019-03-10T18:40:47.898Z,94.70
2019-03-10T18:43:16.700Z,95.00
2019-03-10T18:45:45.495Z,95.10
2019-03-10T18:48:14.756Z,95.10
2019-03-10T18:50:44.583Z,95.10
2019-03-10T18:53:13.754Z,95.30
2019-03-10T18:55:42.765Z,95.50
2019-03-10T18:58:11.575Z,95.50
2019-03-10T19:00:40.410Z,95.60
2019-03-10T19:03:09.300Z,95.90
2019-03-10T19:05:38.055Z,96.10
2019-03-10T19:08:06.853Z,95.90
2019-03-10T19:10:36.091Z,96.10
2019-03-10T19:13:05.133Z,96.30
2019-03-10T19:15:33.953Z,96.50
2019-03-10T19:18:03.793Z,96.40
2019-03-10T19:20:32.667Z,96.50
2019-03-10T19:23:01.499Z,96.50
2019-03-10T19:25:30.574Z,96.20
2019-03-10T19:28:00.645Z,96.10
2019-03-10T19:30:29.397Z,96.00
2019-03-10T19:32:58.260Z,96.20
2019-03-10T19:35:27.027Z,96.30
2019-03-10T19:37:55.860Z,96.30
2019-03-10T19:40:24.938Z,96.50
2019-03-10T19:42:55.489Z,97.00
2019-03-10T19:45:24.859Z,97.10
2019-03-10T19:47:53.958Z,97.00
2019-03-10T19:50:27.965Z,97.00
2019-03-10T19:52:58.764Z,96.60
2019-03-10T19:55:27.561Z,96.40
2019-03-10T19:57:59.591Z,97.00
2019-03-10T20:00:28.446Z,96.40
2019-03-10T20:03:00.317Z,96.60
2019-03-10T20:05:28.871Z,97.20
2019-03-10T20:07:57.878Z,97.50
2019-03-10T20:10:26.671Z,97.20
2019-03-10T20:12:55.610Z,97.50
2019-03-10T20:15:25.421Z,98.20
2019-03-10T20:17:54.249Z,98.80
2019-03-10T20:20:33.033Z,98.90
2019-03-10T20:23:05.920Z,99.50
2019-03-10T20:25:38.739Z,99.60
2019-03-10T20:28:09.547Z,98.70
2019-03-10T20:30:47.125Z,98.40
2019-03-10T20:33:20.204Z,98.20
2019-03-10T20:35:50.325Z,98.20
2019-03-10T20:38:28.588Z,98.00
2019-03-10T20:40:57.537Z,98.00
2019-03-10T20:43:29.807Z,97.90
2019-03-10T20:45:59.015Z,97.50
2019-03-10T20:48:27.814Z,97.80
2019-03-10T20:50:56.645Z,98.10
2019-03-10T20:53:27.231Z,98.20
2019-03-10T20:56:00.413Z,98.50
2019-03-10T20:58:34.906Z,98.50
2019-03-10T21:01:00.597Z,98.00
2019-03-10T21:03:30.796Z,97.70
2019-03-10T21:06:01.671Z,97.40
2019-03-10T21:08:30.843Z,97.20
2019-03-10T21:10:59.847Z,97.10
2019-03-10T21:13:35.104Z,97.10
2019-03-10T21:16:05.876Z,96.90
2019-03-10T21:18:38.971Z,97.00
2019-03-10T21:21:07.864Z,96.80
2019-03-10T21:23:40.628Z,96.60
2019-03-10T21:26:11.671Z,96.00
2019-03-10T21:28:48.429Z,95.70
2019-03-10T21:31:17.262Z,96.60
2019-03-10T21:33:50.412Z,97.50
2019-03-10T22:01:28.473Z,99.00
2019-03-10T22:03:57.274Z,99.20
2019-03-10T22:06:26.324Z,99.10
2019-03-10T22:08:55.273Z,98.00
2019-03-10T22:11:24.124Z,97.70
2019-03-10T22:13:52.938Z,99.30
2019-03-10T22:16:21.744Z,99.60
2019-03-10T22:18:50.578Z,98.60
2019-03-10T22:21:19.413Z,98.40
2019-03-10T22:23:58.504Z,98.50
2019-03-10T22:26:18.675Z,98.90
2019-03-10T22:28:47.549Z,99.30
2019-03-10T22:31:16.908Z,98.90
2019-03-10T22:33:47.185Z,99.10
2019-03-10T22:36:16.431Z,99.50
2019-03-10T22:38:45.249Z,99.60
2019-03-10T22:41:14.100Z,99.90
2019-03-10T22:43:43.056Z,99.90
2019-03-10T22:46:12.040Z,99.90
2019-03-10T22:48:40.838Z,99.90
2019-03-10T22:51:09.692Z,99.90
2019-03-10T22:53:38.478Z,99.70
2019-03-10T22:56:07.324Z,99.70
2019-03-10T22:58:36.188Z,99.50
2019-03-10T23:01:05.779Z,99.40
2019-03-10T23:03:34.713Z,99.60
2019-03-10T23:06:03.668Z,99.40
2019-03-10T23:08:33.797Z,99.70
2019-03-10T23:11:02.640Z,99.30
2019-03-10T23:13:39.030Z,99.10
2019-03-10T23:16:07.573Z,98.90
2019-03-10T23:18:36.568Z,99.00
2019-03-10T23:21:05.719Z,99.20
2019-03-10T23:23:34.724Z,98.90
2019-03-10T23:26:03.552Z,99.00
2019-03-10T23:28:35.306Z,99.20
2019-03-10T23:31:05.605Z,99.10
2019-03-10T23:33:35.602Z,99.00
2019-03-10T23:36:04.418Z,99.00
2019-03-10T23:38:33.263Z,99.20
2019-03-10T23:41:04.021Z,99.40
2019-03-10T23:43:33.651Z,99.20
2019-03-10T23:46:02.802Z,99.10
2019-03-10T23:48:32.576Z,99.20
2019-03-10T23:51:02.393Z,99.00
2019-03-10T23:53:31.209Z,98.40
2019-03-10T23:56:01.947Z,98.60
2019-03-10T23:58:30.697Z,98.60
